createdAt,value
2019-05-11T00:00:12.116Z,100486.42
2019-05-11T00:02:43.759Z,100476.56
2019-05-11T00:05:15.418Z,100479.33
2019-05-11T00:07:47.069Z,100483.44
2019-05-11T00:10:18.827Z,100487.56
2019-05-11T00:12:50.481Z,100483.19
2019-05-11T00:15:22.547Z,100484.52
2019-05-11T00:17:54.402Z,100491.23
2019-05-11T00:20:25.961Z,100486.23
2019-05-11T00:22:57.716Z,100491.28
2019-05-11T00:25:29.161Z,100483.97
2019-05-11T00:28:00.743Z,100481.92
2019-05-11T00:30:32.370Z,100484.58
2019-05-11T00:33:04.334Z,100476.92
2019-05-11T00:35:35.885Z,100484.59
2019-05-11T00:38:07.641Z,100484.93
2019-05-11T00:40:39.402Z,100483.18
2019-05-11T00:43:10.167Z,100489.02
2019-05-11T00:45:41.278Z,100491.55
2019-05-11T00:48:12.930Z,100487.84
2019-05-11T00:50:44.689Z,100493.10
2019-05-11T00:53:16.595Z,100493.30
2019-05-11T00:55:48.408Z,100495.02
2019-05-11T00:58:21.392Z,100488.73
2019-05-11T01:00:53.081Z,100497.18
2019-05-11T01:03:24.309Z,100497.41
2019-05-11T01:05:55.061Z,100497.98
2019-05-11T01:08:26.173Z,100500.02
2019-05-11T01:10:57.825Z,100501.06
2019-05-11T01:13:30.306Z,100500.26
2019-05-11T01:16:02.064Z,100490.65
2019-05-11T01:18:34.022Z,100492.31
2019-05-11T01:21:05.572Z,100495.39
2019-05-11T01:23:37.929Z,100496.35
2019-05-11T01:26:09.300Z,100502.48
2019-05-11T01:28:41.149Z,100501.90
2019-05-11T01:31:11.916Z,100509.52
2019-05-11T01:33:43.243Z,100502.73
2019-05-11T01:36:14.792Z,100497.83
2019-05-11T01:38:46.646Z,100498.05
2019-05-11T01:41:18.607Z,100506.94
2019-05-11T01:43:50.361Z,100505.05
2019-05-11T01:46:22.225Z,100504.25
2019-05-11T01:48:53.982Z,100507.80
2019-05-11T01:51:25.966Z,100503.28
2019-05-11T01:53:57.397Z,100505.47
2019-05-11T01:56:29.251Z,100502.04
2019-05-11T01:59:01.013Z,100501.52
2019-05-11T02:01:32.262Z,100502.42
2019-05-11T02:04:03.817Z,100510.00
2019-05-11T02:06:35.769Z,100509.25
2019-05-11T02:09:07.734Z,100514.95
2019-05-11T02:11:39.388Z,100506.19
2019-05-11T02:14:11.243Z,100515.50
2019-05-11T02:16:43.207Z,100508.23
2019-05-11T02:19:14.966Z,100509.30
2019-05-11T02:21:45.736Z,100509.63
2019-05-11T02:24:16.824Z,100509.36
2019-05-11T02:26:48.603Z,100504.98
2019-05-11T02:29:20.360Z,100511.41
2019-05-11T02:31:51.126Z,100510.41
2019-05-11T02:34:22.441Z,100519.25
2019-05-11T02:36:53.992Z,100521.05
2019-05-11T02:39:25.748Z,100518.30
2019-05-11T02:41:58.631Z,100521.05
2019-05-11T02:44:29.296Z,100523.71
2019-05-11T02:47:00.616Z,100532.78
2019-05-11T02:49:32.581Z,100529.76
2019-05-11T02:52:04.924Z,100528.15
2019-05-11T02:54:37.590Z,100529.23
2019-05-11T02:57:08.973Z,100529.95
2019-05-11T02:59:40.627Z,100527.57
2019-05-11T03:02:12.602Z,100534.08
2019-05-11T03:04:44.141Z,100530.25
2019-05-11T03:07:15.715Z,100534.56
2019-05-11T03:09:47.557Z,100542.13
2019-05-11T03:12:19.619Z,100541.37
2019-05-11T03:14:51.173Z,100534.91
2019-05-11T03:17:24.463Z,100541.91
2019-05-11T03:19:55.814Z,100534.88
2019-05-11T03:22:27.463Z,100538.60
2019-05-11T03:24:58.919Z,100538.20
2019-05-11T03:27:30.591Z,100543.86
2019-05-11T03:30:02.555Z,100542.97
2019-05-11T03:32:36.030Z,100546.41
2019-05-11T03:35:07.888Z,100547.20
2019-05-11T03:37:39.658Z,100546.64
2019-05-11T03:40:12.021Z,100558.36
2019-05-11T03:42:43.877Z,100558.95
2019-05-11T03:45:16.066Z,100556.73
2019-05-11T03:47:47.699Z,100555.59
2019-05-11T03:50:19.565Z,100561.08
2019-05-11T03:52:51.629Z,100560.62
2019-05-11T03:55:23.085Z,100563.53
2019-05-11T03:57:55.658Z,100563.13
2019-05-11T04:00:27.415Z,100569.05
2019-05-11T04:02:59.476Z,100569.11
2019-05-11T04:05:31.022Z,100564.02
2019-05-11T04:08:02.578Z,100558.30
2019-05-11T04:10:34.339Z,100562.31
2019-05-11T04:13:05.886Z,100569.73
2019-05-11T04:15:37.566Z,100569.64
2019-05-11T04:18:09.094Z,100581.05
2019-05-11T04:20:40.954Z,100578.69
2019-05-11T04:23:13.017Z,100580.00
2019-05-11T04:25:44.880Z,100577.28
2019-05-11T04:28:16.652Z,100581.54
2019-05-11T04:30:48.398Z,100584.74
2019-05-11T04:33:19.947Z,100583.98
2019-05-11T04:35:51.604Z,100575.57
2019-05-11T04:38:23.462Z,100586.67
2019-05-11T04:40:55.114Z,100593.67
2019-05-11T04:43:27.008Z,100593.16
2019-05-11T04:45:58.636Z,100588.91
2019-05-11T04:48:30.275Z,100594.16
2019-05-11T04:51:02.041Z,100591.98
2019-05-11T04:53:33.087Z,100596.30
2019-05-11T04:56:04.235Z,100594.73
2019-05-11T04:58:34.888Z,100594.02
2019-05-11T05:01:06.614Z,100596.91
2019-05-11T05:03:41.046Z,100599.28
2019-05-11T05:06:22.202Z,100603.16
2019-05-11T05:08:44.658Z,100604.95
2019-05-11T05:11:16.715Z,100607.55
2019-05-11T05:13:48.370Z,100614.15
2019-05-11T05:16:20.231Z,100615.30
2019-05-11T05:18:51.781Z,100617.42
2019-05-11T05:21:23.435Z,100626.91
2019-05-11T05:23:54.097Z,100623.33
2019-05-11T05:26:25.319Z,100629.52
2019-05-11T05:28:56.867Z,100630.30
2019-05-11T05:31:28.727Z,100637.12
2019-05-11T05:34:01.446Z,100641.38
2019-05-11T05:36:33.061Z,100641.66
2019-05-11T05:39:08.901Z,100641.58
2019-05-11T05:41:40.674Z,100636.36
2019-05-11T05:44:13.144Z,100649.83
2019-05-11T05:46:44.694Z,100642.62
2019-05-11T05:49:15.462Z,100647.56
2019-05-11T05:51:46.897Z,100649.17
2019-05-11T05:54:18.842Z,100653.02
2019-05-11T05:56:50.499Z,100654.67
2019-05-11T05:59:22.562Z,100666.73
2019-05-11T06:01:54.383Z,100658.84
2019-05-11T06:04:25.977Z,100657.46
2019-05-11T06:06:57.829Z,100662.63
2019-05-11T06:09:29.800Z,100661.80
2019-05-11T06:12:01.579Z,100666.03
2019-05-11T06:14:33.433Z,100664.00
2019-05-11T06:17:04.964Z,100666.14
2019-05-11T06:19:36.925Z,100668.70
2019-05-11T06:22:08.692Z,100664.66
2019-05-11T06:24:40.132Z,100666.95
2019-05-11T06:27:10.895Z,100662.08
2019-05-11T06:29:42.112Z,100670.94
2019-05-11T06:32:13.864Z,100671.53
2019-05-11T06:34:45.421Z,100667.33
2019-05-11T06:37:16.183Z,100678.53
2019-05-11T06:39:49.139Z,100674.22
2019-05-11T06:42:21.003Z,100678.50
2019-05-11T06:44:52.650Z,100678.11
2019-05-11T06:47:25.847Z,100674.92
2019-05-11T06:49:57.540Z,100683.95
2019-05-11T06:52:29.575Z,100672.64
2019-05-11T06:55:01.115Z,100681.78
2019-05-11T06:57:32.873Z,100676.87
2019-05-11T07:00:05.827Z,100671.83
2019-05-11T07:02:38.027Z,100680.00
2019-05-11T07:05:10.090Z,100670.09
2019-05-11T07:07:47.412Z,100675.22
2019-05-11T07:10:15.676Z,100688.34
2019-05-11T07:12:47.246Z,100678.02
2019-05-11T07:15:18.759Z,100678.23
2019-05-11T07:17:50.511Z,100685.45
2019-05-11T07:20:23.399Z,100686.33
2019-05-11T07:22:55.054Z,100686.12
2019-05-11T07:25:26.914Z,100690.06
2019-05-11T07:27:58.568Z,100685.08
2019-05-11T07:30:30.222Z,100682.88
2019-05-11T07:33:02.389Z,100687.81
2019-05-11T07:35:34.553Z,100688.69
2019-05-11T07:38:08.353Z,100681.71
2019-05-11T07:40:39.509Z,100673.64
2019-05-11T07:43:11.879Z,100679.48
2019-05-11T07:45:43.532Z,100684.03
2019-05-11T07:48:15.403Z,100692.31
2019-05-11T07:50:48.021Z,100687.18
2019-05-11T07:53:19.933Z,100682.73
2019-05-11T07:55:51.591Z,100697.95
2019-05-11T07:58:22.349Z,100699.71
2019-05-11T08:00:53.864Z,100701.08
2019-05-11T08:03:28.183Z,100699.08
2019-05-11T08:06:02.757Z,100700.56
2019-05-11T08:08:33.132Z,100699.66
2019-05-11T08:11:07.942Z,100700.91
2019-05-11T08:13:39.018Z,100705.09
2019-05-11T08:16:11.578Z,100706.16
2019-05-11T08:18:43.437Z,100705.00
2019-05-11T08:21:17.692Z,100708.45
2019-05-11T08:23:49.006Z,100712.33
2019-05-11T08:26:20.661Z,100717.56
2019-05-11T08:28:52.624Z,100713.30
2019-05-11T08:31:24.291Z,100704.95
2019-05-11T08:33:58.234Z,100702.11
2019-05-11T08:36:29.288Z,100696.70
2019-05-11T08:39:00.777Z,100699.29
2019-05-11T08:41:32.531Z,100690.35
2019-05-11T08:44:04.373Z,100687.41
2019-05-11T08:46:38.374Z,100685.23
2019-05-11T08:49:09.345Z,100689.28
2019-05-11T08:51:41.315Z,100688.16
2019-05-11T08:54:13.163Z,100687.56
2019-05-11T08:56:44.713Z,100697.34
2019-05-11T08:59:18.639Z,100700.72
2019-05-11T09:01:50.481Z,100695.25
2019-05-11T09:04:22.043Z,100705.03
2019-05-11T09:06:53.894Z,100707.40
2019-05-11T09:09:25.657Z,100702.36
2019-05-11T09:11:58.922Z,100704.74
2019-05-11T09:14:30.636Z,100705.28
2019-05-11T09:17:02.307Z,100705.78
2019-05-11T09:19:34.050Z,100705.94
2019-05-11T09:22:08.085Z,100702.84
2019-05-11T09:24:39.169Z,100705.44
2019-05-11T09:27:11.024Z,100709.80
2019-05-11T09:29:42.580Z,100714.38
2019-05-11T09:32:14.440Z,100720.64
2019-05-11T09:34:48.318Z,100723.66
2019-05-11T09:37:19.489Z,100724.38
2019-05-11T09:39:51.146Z,100726.30
2019-05-11T09:42:23.003Z,100727.77
2019-05-11T09:44:54.354Z,100725.40
2019-05-11T09:47:27.945Z,100727.09
2019-05-11T09:49:59.196Z,100731.91
2019-05-11T09:52:32.713Z,100728.63
2019-05-11T09:55:05.476Z,100732.48
2019-05-11T09:57:38.800Z,100732.19
2019-05-11T10:00:10.626Z,100748.41
2019-05-11T10:02:42.696Z,100746.79
2019-05-11T10:05:14.556Z,100750.38
2019-05-11T10:07:48.365Z,100756.42
2019-05-11T10:10:19.296Z,100747.60
2019-05-11T10:12:53.098Z,100755.72
2019-05-11T10:15:24.670Z,100760.34
2019-05-11T10:17:58.221Z,100757.17
2019-05-11T10:20:29.411Z,100745.31
2019-05-11T10:23:01.257Z,100754.72
2019-05-11T10:25:32.662Z,100743.20
2019-05-11T10:28:04.255Z,100746.07
2019-05-11T10:30:38.414Z,100753.69
2019-05-11T10:33:09.414Z,100754.88
2019-05-11T10:35:41.999Z,100752.41
2019-05-11T10:38:15.082Z,100755.84
2019-05-11T10:40:48.017Z,100750.19
2019-05-11T10:43:20.640Z,100753.89
2019-05-11T10:45:51.302Z,100760.77
2019-05-11T10:48:22.703Z,100761.17
2019-05-11T10:50:54.480Z,100764.89
2019-05-11T10:53:27.886Z,100764.70
2019-05-11T10:55:59.425Z,100762.95
2019-05-11T10:58:31.286Z,100760.35
2019-05-11T11:01:03.072Z,100761.89
2019-05-11T11:03:35.109Z,100761.46
2019-05-11T11:06:08.450Z,100760.21
2019-05-11T11:08:40.181Z,100760.52
2019-05-11T11:11:11.711Z,100763.01
2019-05-11T11:13:43.373Z,100763.05
2019-05-11T11:16:14.917Z,100769.13
2019-05-11T11:18:48.570Z,100766.19
2019-05-11T11:21:22.776Z,100763.94
2019-05-11T11:23:53.163Z,100765.58
2019-05-11T11:26:25.015Z,100759.02
2019-05-11T11:28:58.125Z,100765.28
2019-05-11T11:31:29.762Z,100769.42
2019-05-11T11:34:01.224Z,100770.18
2019-05-11T11:36:32.871Z,100771.21
2019-05-11T11:39:08.366Z,100775.02
2019-05-11T11:41:39.964Z,100775.73
2019-05-11T11:44:12.340Z,100777.35
2019-05-11T11:46:52.159Z,100777.31
2019-05-11T11:49:18.795Z,100779.69
2019-05-11T11:51:50.915Z,100781.75
2019-05-11T11:54:23.004Z,100784.69
2019-05-11T11:56:54.708Z,100791.19
2019-05-11T11:59:25.545Z,100784.98
2019-05-11T12:01:58.103Z,100795.02
2019-05-11T12:04:30.083Z,100795.78
2019-05-11T12:07:01.939Z,100799.37
2019-05-11T12:09:33.714Z,100803.98
2019-05-11T12:12:07.851Z,100802.98
2019-05-11T12:14:39.061Z,100803.24
2019-05-11T12:17:11.236Z,100809.41
2019-05-11T12:19:42.879Z,100810.50
2019-05-11T12:22:14.334Z,100812.13
2019-05-11T12:24:48.108Z,100818.20
2019-05-11T12:27:19.693Z,100812.30
2019-05-11T12:29:51.550Z,100818.30
2019-05-11T12:32:27.679Z,100818.37
2019-05-11T12:34:59.570Z,100820.91
2019-05-11T12:37:31.328Z,100824.52
2019-05-11T12:40:04.003Z,100821.69
2019-05-11T12:42:38.060Z,100828.76
2019-05-11T12:45:10.133Z,100820.81
2019-05-11T12:47:41.530Z,100823.27
2019-05-11T12:50:13.491Z,100823.28
2019-05-11T12:52:47.547Z,100824.12
2019-05-11T12:55:18.541Z,100824.75
2019-05-11T12:57:50.198Z,100828.78
2019-05-11T13:00:22.258Z,100832.69
2019-05-11T13:02:54.323Z,100837.44
2019-05-11T13:05:25.778Z,100841.62
2019-05-11T13:07:58.621Z,100842.88
2019-05-11T13:10:30.417Z,100838.14
2019-05-11T13:13:02.796Z,100839.97
2019-05-11T13:15:34.419Z,100845.09
2019-05-11T13:18:08.377Z,100845.62
2019-05-11T13:20:41.640Z,100846.56
2019-05-11T13:23:13.399Z,100844.66
2019-05-11T13:25:45.056Z,100845.70
2019-05-11T13:28:17.966Z,100832.44
2019-05-11T13:30:49.599Z,100837.11
2019-05-11T13:33:20.571Z,100844.05
2019-05-11T13:35:51.777Z,100846.27
2019-05-11T13:38:23.533Z,100841.06
2019-05-11T13:40:56.116Z,100835.11
2019-05-11T13:43:30.120Z,100842.80
2019-05-11T13:46:01.883Z,100832.88
2019-05-11T13:48:33.748Z,100840.60
2019-05-11T13:51:05.496Z,100842.09
2019-05-11T13:53:37.790Z,100853.48
2019-05-11T13:56:09.418Z,100852.20
2019-05-11T13:58:40.976Z,100847.20
2019-05-11T14:01:13.245Z,100843.89
2019-05-11T14:03:44.734Z,100849.25
2019-05-11T14:06:18.490Z,100842.70
2019-05-11T14:08:49.551Z,100846.02
2019-05-11T14:11:21.291Z,100844.92
2019-05-11T14:13:53.157Z,100845.12
2019-05-11T14:16:27.136Z,100851.05
2019-05-11T14:18:58.417Z,100844.45
2019-05-11T14:21:30.372Z,100851.23
2019-05-11T14:24:01.922Z,100849.25
2019-05-11T14:26:33.579Z,100856.90
2019-05-11T14:29:05.546Z,100854.47
2019-05-11T14:31:38.650Z,100855.70
2019-05-11T14:34:10.590Z,100852.64
2019-05-11T14:36:42.446Z,100868.44
2019-05-11T14:39:14.106Z,100865.90
2019-05-11T14:41:48.561Z,100869.84
2019-05-11T14:44:19.067Z,100862.60
2019-05-11T14:46:50.614Z,100863.83
2019-05-11T14:49:22.363Z,100862.73
2019-05-11T14:51:54.639Z,100865.09
2019-05-11T14:54:28.655Z,100866.84
2019-05-11T14:56:59.889Z,100864.12
2019-05-11T14:59:31.565Z,100869.64
2019-05-11T15:02:08.679Z,100871.45
2019-05-11T15:04:40.072Z,100864.35
2019-05-11T15:07:12.045Z,100859.86
2019-05-11T15:09:43.693Z,100865.86
2019-05-11T15:12:15.451Z,100867.89
2019-05-11T15:14:48.450Z,100864.76
2019-05-11T15:17:19.279Z,100865.33
2019-05-11T15:19:51.236Z,100864.92
2019-05-11T15:22:23.097Z,100870.05
2019-05-11T15:24:53.858Z,100860.50
2019-05-11T15:27:25.071Z,100863.89
2019-05-11T15:29:58.812Z,100865.09
2019-05-11T15:32:29.931Z,100866.90
2019-05-11T15:35:01.571Z,100868.32
2019-05-11T15:37:34.562Z,100866.83
2019-05-11T15:40:14.918Z,100873.28
2019-05-11T15:42:48.673Z,100871.95
2019-05-11T15:45:21.620Z,100871.23
2019-05-11T15:47:53.283Z,100873.98
2019-05-11T15:50:25.123Z,100871.80
2019-05-11T15:52:58.223Z,100876.35
2019-05-11T15:55:30.070Z,100878.87
2019-05-11T15:58:01.826Z,100877.05
2019-05-11T16:00:32.487Z,100884.22
2019-05-11T16:03:04.132Z,100886.58
2019-05-11T16:05:35.969Z,100894.07
2019-05-11T16:08:08.652Z,100896.44
2019-05-11T16:10:40.307Z,100895.07
2019-05-11T16:13:12.265Z,100896.09
2019-05-11T16:15:44.066Z,100905.30
2019-05-11T16:18:18.675Z,100900.01
2019-05-11T16:20:52.645Z,100893.55
2019-05-11T16:23:28.410Z,100896.71
2019-05-11T16:26:00.069Z,100908.02
2019-05-11T16:28:31.923Z,100901.64
2019-05-11T16:31:03.786Z,100900.49
2019-05-11T16:33:36.678Z,100898.06
2019-05-11T16:36:09.208Z,100904.17
2019-05-11T16:38:42.805Z,100908.16
2019-05-11T16:41:17.858Z,100914.34
2019-05-11T16:43:49.635Z,100916.52
2019-05-11T16:46:21.494Z,100916.67
2019-05-11T16:48:53.354Z,100917.94
2019-05-11T16:51:24.923Z,100918.03
2019-05-11T16:53:58.776Z,100917.69
2019-05-11T16:56:30.477Z,100921.76
2019-05-11T16:59:02.543Z,100926.59
2019-05-11T17:01:34.557Z,100930.22
2019-05-11T17:04:06.048Z,100937.55
2019-05-11T17:06:38.577Z,100932.21
2019-05-11T17:09:10.497Z,100938.63
2019-05-11T17:11:42.555Z,100935.22
2019-05-11T17:14:14.131Z,100933.72
2019-05-11T17:16:48.063Z,100937.46
2019-05-11T17:19:19.974Z,100932.91
2019-05-11T17:21:52.146Z,100934.36
2019-05-11T17:24:23.892Z,100929.45
2019-05-11T17:26:58.231Z,100928.44
2019-05-11T17:29:29.260Z,100933.84
2019-05-11T17:32:00.920Z,100942.51
2019-05-11T17:34:32.801Z,100951.27
2019-05-11T17:37:08.365Z,100957.88
2019-05-11T17:39:39.357Z,100955.59
2019-05-11T17:42:11.420Z,100955.59
2019-05-11T17:44:42.981Z,100954.80
2019-05-11T17:47:14.944Z,100957.09
2019-05-11T17:49:57.350Z,100959.88
2019-05-11T17:52:20.149Z,100969.75
2019-05-11T17:54:54.947Z,100970.02
2019-05-11T17:57:24.841Z,100975.52
2019-05-11T17:59:57.942Z,100980.17
2019-05-11T18:02:29.987Z,100976.42
2019-05-11T18:05:01.441Z,100979.25
2019-05-11T18:07:34.211Z,100979.77
2019-05-11T18:10:08.208Z,100983.25
2019-05-11T18:12:39.895Z,100983.42
2019-05-11T18:15:11.925Z,100984.16
2019-05-11T18:17:43.381Z,100991.36
2019-05-11T18:20:18.649Z,100996.80
2019-05-11T18:22:49.499Z,101000.76
2019-05-11T18:25:21.227Z,100996.75
2019-05-11T18:27:52.987Z,101001.45
2019-05-11T18:30:24.636Z,101009.57
2019-05-11T18:32:59.226Z,101011.71
2019-05-11T18:35:29.694Z,101007.17
2019-05-11T18:38:01.347Z,101007.98
2019-05-11T18:40:33.106Z,101013.02
2019-05-11T18:43:05.170Z,101018.60
2019-05-11T18:45:38.297Z,101015.18
2019-05-11T18:48:10.225Z,101017.22
2019-05-11T18:50:41.882Z,101020.64
2019-05-11T18:53:14.047Z,101026.61
2019-05-11T18:55:45.597Z,101024.38
2019-05-11T18:58:18.434Z,101018.39
2019-05-11T19:00:50.715Z,101020.33
2019-05-11T19:03:22.919Z,101026.72
2019-05-11T19:05:57.577Z,101021.54
2019-05-11T19:08:28.226Z,101025.78
2019-05-11T19:10:59.855Z,101022.72
2019-05-11T19:13:31.782Z,101026.54
2019-05-11T19:16:03.643Z,101020.30
2019-05-11T19:18:35.609Z,101024.39
2019-05-11T19:21:09.206Z,101025.16
2019-05-11T19:23:40.145Z,101027.75
2019-05-11T19:26:11.800Z,101023.63
2019-05-11T19:28:43.455Z,101025.38
2019-05-11T19:31:15.112Z,101029.73
2019-05-11T19:33:48.951Z,101029.96
2019-05-11T19:36:20.260Z,101031.91
2019-05-11T19:38:51.918Z,101032.16
2019-05-11T19:41:23.674Z,101032.34
2019-05-11T19:43:57.691Z,101029.00
2019-05-11T19:46:28.733Z,101038.01
2019-05-11T19:49:00.477Z,101035.52
2019-05-11T19:51:32.339Z,101042.39
2019-05-11T19:54:03.993Z,101050.09
2019-05-11T19:56:37.798Z,101047.42
2019-05-11T19:59:08.951Z,101051.72
2019-05-11T20:01:43.874Z,101047.72
2019-05-11T20:04:15.430Z,101046.80
2019-05-11T20:06:47.936Z,101054.56
2019-05-11T20:09:19.558Z,101057.56
2019-05-11T20:11:51.314Z,101053.73
2019-05-11T20:14:22.760Z,101053.26
2019-05-11T20:16:54.324Z,101051.28
2019-05-11T20:19:27.852Z,101052.91
2019-05-11T20:21:59.159Z,101051.58
2019-05-11T20:24:30.813Z,101054.90
2019-05-11T20:27:02.471Z,101057.23
2019-05-11T20:29:35.563Z,101062.69
2019-05-11T20:32:08.054Z,101060.02
2019-05-11T20:34:39.481Z,101065.05
2019-05-11T20:37:11.136Z,101058.27
2019-05-11T20:39:43.003Z,101055.60
2019-05-11T20:42:13.761Z,101061.66
2019-05-11T20:44:45.178Z,101059.90
2019-05-11T20:47:17.849Z,101064.01
2019-05-11T20:49:49.412Z,101068.31
2019-05-11T20:52:21.379Z,101065.34
2019-05-11T20:54:52.825Z,101058.46
2019-05-11T20:57:24.275Z,101057.28
2019-05-11T20:59:57.568Z,101060.98
2019-05-11T21:02:29.322Z,101063.05
2019-05-11T21:05:00.975Z,101065.03
2019-05-11T21:07:31.709Z,101064.52
2019-05-11T21:10:03.158Z,101061.94
2019-05-11T21:12:35.024Z,101061.94
2019-05-11T21:15:08.566Z,101069.72
2019-05-11T21:21:06.513Z,101076.00
2019-05-11T21:23:40.526Z,101077.12
2019-05-11T21:26:11.154Z,101075.27
2019-05-11T21:28:48.514Z,101078.48
2019-05-11T21:31:19.074Z,101072.82
2019-05-11T21:33:50.656Z,101074.06
2019-05-11T21:36:22.176Z,101072.60
2019-05-11T21:38:53.830Z,101073.50
2019-05-11T21:41:30.492Z,101070.05
2019-05-11T21:43:58.781Z,101073.45
2019-05-11T21:46:29.544Z,101070.80
2019-05-11T21:49:01.983Z,101078.80
2019-05-11T21:51:32.750Z,101082.83
2019-05-11T21:54:04.364Z,101089.84
2019-05-11T21:56:40.553Z,101085.28
2019-05-11T21:59:09.848Z,101088.94
2019-05-11T22:01:41.695Z,101081.97
2019-05-11T22:04:13.554Z,101085.72
2019-05-11T22:06:45.207Z,101080.39
2019-05-11T22:09:18.562Z,101081.37
2019-05-11T22:11:50.172Z,101080.30
2019-05-11T22:14:21.811Z,101082.75
2019-05-11T22:16:53.572Z,101077.85
2019-05-11T22:19:24.331Z,101074.45
2019-05-11T22:21:55.546Z,101081.80
2019-05-11T22:24:28.290Z,101077.59
2019-05-11T22:27:00.314Z,101084.87
2019-05-11T22:29:31.951Z,101085.44
2019-05-11T22:32:03.704Z,101072.52
2019-05-11T22:34:37.833Z,101084.87
2019-05-11T22:37:09.472Z,101090.33
2019-05-11T22:39:40.922Z,101087.67
2019-05-11T22:42:12.679Z,101085.52
2019-05-11T22:44:44.743Z,101082.56
2019-05-11T22:47:17.880Z,101084.61
2019-05-11T22:49:49.775Z,101083.38
2019-05-11T22:52:32.983Z,101078.16
2019-05-11T22:54:55.557Z,101074.91
2019-05-11T22:57:27.313Z,101077.22
2019-05-11T23:00:01.575Z,101077.11
2019-05-11T23:02:34.201Z,101078.95
2019-05-11T23:05:08.474Z,101079.16
2019-05-11T23:07:41.340Z,101079.27
2019-05-11T23:10:13.271Z,101079.74
2019-05-11T23:12:45.030Z,101086.27
2019-05-11T23:15:18.527Z,101081.30
2019-05-11T23:17:50.289Z,101080.71
2019-05-11T23:20:22.246Z,101076.25
2019-05-11T23:22:59.070Z,101074.92
2019-05-11T23:25:28.748Z,101075.28
2019-05-11T23:27:59.978Z,101070.66
2019-05-11T23:30:31.731Z,101073.63
2019-05-11T23:33:03.491Z,101075.77
2019-05-11T23:35:35.144Z,101086.88
2019-05-11T23:38:07.008Z,101092.09
2019-05-11T23:40:38.772Z,101094.90
2019-05-11T23:43:10.418Z,101089.53
2019-05-11T23:45:41.078Z,101083.61
2019-05-11T23:48:12.613Z,101087.39
2019-05-11T23:50:45.892Z,101092.02
2019-05-11T23:53:19.599Z,101090.69
2019-05-11T23:55:51.254Z,101092.52
2019-05-11T23:58:22.915Z,101099.91
